This is the latest recevied weather packets stored in our database for station/object KD4EED. If no packets are shown the sender has not sent any weather packets the latest 10 day(s).
| Time | Temp. | Humidity | Pressure | Rain* | Wind** | Luminosity | Snow |
|---|---|---|---|---|---|---|---|
| 1777493245 | 22.22° C | 51% | 1013.3 hPa | - | - | 773 W/m² | - |
| 1777492941 | 22.78° C | 51% | 1013.3 hPa | - | - | 829 W/m² | - |
| 1777492639 | 22.22° C | 52% | 1013.1 hPa | - | - | 823 W/m² | - |
| 1777492339 | 21.67° C | 53% | 1013.3 hPa | - | - | 824 W/m² | - |
| 1777492036 | 21.67° C | 54% | 1013.4 hPa | - | - | 824 W/m² | - |
| 1777491733 | 21.67° C | 55% | 1013.3 hPa | - | - | 822 W/m² | - |
| 1777491430 | 21.67° C | 53% | 1013.7 hPa | - | - | 816 W/m² | - |
| 1777491127 | 21.67° C | 56% | 1013.4 hPa | - | - | 813 W/m² | - |
| 1777490823 | 21.67° C | 54% | 1013.4 hPa | - | - | 810 W/m² | - |
| 1777490519 | 21.67° C | 53% | 1013.6 hPa | - | - | 801 W/m² | - |
| 1777490215 | 21.67° C | 54% | 1013.6 hPa | - | - | 794 W/m² | - |
| 1777489913 | 21.67° C | 54% | 1013.8 hPa | - | - | 787 W/m² | - |
| 1777489610 | 22.22° C | 53% | 1013.7 hPa | - | - | 777 W/m² | - |
| 1777489307 | 22.78° C | 52% | 1013.7 hPa | - | - | 769 W/m² | - |
| 1777489004 | 22.78° C | 50% | 1013.8 hPa | - | - | 763 W/m² | - |
| 1777488701 | 22.78° C | 52% | 1013.8 hPa | - | - | 754 W/m² | - |
| 1777488398 | 22.78° C | 52% | 1014 hPa | - | - | 741 W/m² | - |
| 1777488097 | 22.78° C | 54% | 1014 hPa | - | - | 735 W/m² | - |
| 1777487794 | 22.78° C | 53% | 1014.2 hPa | - | - | 723 W/m² | - |
| 1777487492 | 22.78° C | 54% | 1014.1 hPa | - | - | 715 W/m² | - |
| 1777487189 | 22.78° C | 53% | 1014.1 hPa | - | - | 708 W/m² | - |
| 1777486885 | 22.78° C | 52% | 1014.2 hPa | - | - | 701 W/m² | - |
| 1777486582 | 22.78° C | 53% | 1014 hPa | - | - | 694 W/m² | - |
| 1777486280 | 22.78° C | 52% | 1014.1 hPa | - | - | 687 W/m² | - |
| 1777485977 | 22.78° C | 53% | 1014.2 hPa | - | - | 679 W/m² | - |
* Rain since midnight (hover to see other rain measurements)
** Current wind speed in m/s (hover to see current wind gust speed)